sensor_id;sensor_type;location;lat;lon;timestamp;pressure;altitude;pressure_sealevel;temperature;humidity
76728;BME280;65652;53.132;18.026;2024-02-21T00:01:26;101597.72;;;7.58;76.70
76728;BME280;65652;53.132;18.026;2024-02-21T00:03:53;101598.83;;;7.60;76.70
76728;BME280;65652;53.132;18.026;2024-02-21T00:06:20;101594.02;;;7.61;76.69
76728;BME280;65652;53.132;18.026;2024-02-21T00:08:46;101595.22;;;7.61;76.87
76728;BME280;65652;53.132;18.026;2024-02-21T00:11:13;101592.20;;;7.62;76.88
76728;BME280;65652;53.132;18.026;2024-02-21T00:13:40;101591.58;;;7.64;76.84
76728;BME280;65652;53.132;18.026;2024-02-21T00:16:07;101592.77;;;7.64;76.77
76728;BME280;65652;53.132;18.026;2024-02-21T00:18:34;101586.92;;;7.65;76.84
76728;BME280;65652;53.132;18.026;2024-02-21T00:21:01;101585.41;;;7.66;76.83
76728;BME280;65652;53.132;18.026;2024-02-21T00:23:28;101588.15;;;7.68;76.66
76728;BME280;65652;53.132;18.026;2024-02-21T00:25:55;101582.83;;;7.69;76.94
76728;BME280;65652;53.132;18.026;2024-02-21T00:28:22;101582.77;;;7.69;76.79
76728;BME280;65652;53.132;18.026;2024-02-21T00:30:49;101583.59;;;7.71;76.82
76728;BME280;65652;53.132;18.026;2024-02-21T00:33:17;101580.39;;;7.71;76.89
76728;BME280;65652;53.132;18.026;2024-02-21T00:35:44;101574.36;;;7.72;76.91
76728;BME280;65652;53.132;18.026;2024-02-21T00:38:10;101570.38;;;7.74;76.79
76728;BME280;65652;53.132;18.026;2024-02-21T00:40:37;101569.43;;;7.75;76.77
76728;BME280;65652;53.132;18.026;2024-02-21T00:43:04;101566.29;;;7.74;76.66
76728;BME280;65652;53.132;18.026;2024-02-21T00:45:31;101569.71;;;7.76;76.89
76728;BME280;65652;53.132;18.026;2024-02-21T00:47:58;101570.70;;;7.77;76.70
76728;BME280;65652;53.132;18.026;2024-02-21T00:50:24;101571.48;;;7.79;76.79
76728;BME280;65652;53.132;18.026;2024-02-21T00:52:51;101568.52;;;7.78;76.62
76728;BME280;65652;53.132;18.026;2024-02-21T00:55:18;101559.07;;;7.77;76.68
76728;BME280;65652;53.132;18.026;2024-02-21T00:57:45;101560.04;;;7.79;76.78
76728;BME280;65652;53.132;18.026;2024-02-21T01:00:12;101551.21;;;7.79;76.78
76728;BME280;65652;53.132;18.026;2024-02-21T01:02:39;101549.77;;;7.80;76.68
76728;BME280;65652;53.132;18.026;2024-02-21T01:05:06;101546.30;;;7.79;76.68
76728;BME280;65652;53.132;18.026;2024-02-21T01:07:33;101547.99;;;7.77;76.77
76728;BME280;65652;53.132;18.026;2024-02-21T01:10:00;101543.76;;;7.75;76.99
76728;BME280;65652;53.132;18.026;2024-02-21T01:12:27;101543.50;;;7.73;76.91
76728;BME280;65652;53.132;18.026;2024-02-21T01:14:53;101540.37;;;7.73;76.93
76728;BME280;65652;53.132;18.026;2024-02-21T01:17:20;101537.75;;;7.72;77.11
76728;BME280;65652;53.132;18.026;2024-02-21T01:19:47;101529.68;;;7.72;77.11
76728;BME280;65652;53.132;18.026;2024-02-21T01:22:14;101528.80;;;7.72;77.15
76728;BME280;65652;53.132;18.026;2024-02-21T01:24:42;101526.53;;;7.72;77.04
76728;BME280;65652;53.132;18.026;2024-02-21T01:27:09;101525.89;;;7.71;77.12
76728;BME280;65652;53.132;18.026;2024-02-21T01:29:36;101522.21;;;7.71;77.07
76728;BME280;65652;53.132;18.026;2024-02-21T01:32:03;101521.23;;;7.70;77.15
76728;BME280;65652;53.132;18.026;2024-02-21T01:34:30;101516.30;;;7.70;77.07
76728;BME280;65652;53.132;18.026;2024-02-21T01:36:56;101514.00;;;7.70;77.14
76728;BME280;65652;53.132;18.026;2024-02-21T01:39:23;101516.58;;;7.68;77.23
76728;BME280;65652;53.132;18.026;2024-02-21T01:41:50;101509.91;;;7.65;77.19
76728;BME280;65652;53.132;18.026;2024-02-21T01:44:17;101510.36;;;7.64;77.08
76728;BME280;65652;53.132;18.026;2024-02-21T01:46:44;101510.88;;;7.61;77.31
76728;BME280;65652;53.132;18.026;2024-02-21T01:49:10;101512.08;;;7.61;77.28
76728;BME280;65652;53.132;18.026;2024-02-21T01:51:38;101508.58;;;7.61;77.21
76728;BME280;65652;53.132;18.026;2024-02-21T01:54:05;101504.61;;;7.60;77.25
76728;BME280;65652;53.132;18.026;2024-02-21T01:56:32;101505.14;;;7.57;77.41
76728;BME280;65652;53.132;18.026;2024-02-21T01:58:59;101504.80;;;7.57;77.26
76728;BME280;65652;53.132;18.026;2024-02-21T02:01:26;101499.77;;;7.59;77.37
76728;BME280;65652;53.132;18.026;2024-02-21T02:03:54;101501.13;;;7.59;77.27
76728;BME280;65652;53.132;18.026;2024-02-21T02:06:21;101498.58;;;7.58;77.35
76728;BME280;65652;53.132;18.026;2024-02-21T02:08:48;101497.45;;;7.56;77.38
76728;BME280;65652;53.132;18.026;2024-02-21T02:11:15;101492.59;;;7.56;77.34
76728;BME280;65652;53.132;18.026;2024-02-21T02:13:43;101494.91;;;7.55;77.46
76728;BME280;65652;53.132;18.026;2024-02-21T02:16:10;101490.14;;;7.55;77.52
76728;BME280;65652;53.132;18.026;2024-02-21T02:18:37;101486.45;;;7.55;77.40
76728;BME280;65652;53.132;18.026;2024-02-21T02:21:13;101484.92;;;7.54;77.48
76728;BME280;65652;53.132;18.026;2024-02-21T02:23:47;101478.60;;;7.54;77.36
76728;BME280;65652;53.132;18.026;2024-02-21T02:26:14;101478.20;;;7.55;77.53
76728;BME280;65652;53.132;18.026;2024-02-21T02:28:40;101473.69;;;7.54;77.49
76728;BME280;65652;53.132;18.026;2024-02-21T02:31:07;101475.75;;;7.55;77.49
76728;BME280;65652;53.132;18.026;2024-02-21T02:33:34;101470.95;;;7.56;77.46
76728;BME280;65652;53.132;18.026;2024-02-21T02:36:01;101469.66;;;7.57;77.41
76728;BME280;65652;53.132;18.026;2024-02-21T02:38:28;101469.02;;;7.59;77.45
76728;BME280;65652;53.132;18.026;2024-02-21T02:40:55;101468.20;;;7.57;77.59
76728;BME280;65652;53.132;18.026;2024-02-21T02:43:22;101462.79;;;7.57;77.52
76728;BME280;65652;53.132;18.026;2024-02-21T02:45:48;101462.92;;;7.58;77.52
76728;BME280;65652;53.132;18.026;2024-02-21T02:48:15;101457.73;;;7.59;77.38
76728;BME280;65652;53.132;18.026;2024-02-21T02:50:42;101455.55;;;7.60;77.42
76728;BME280;65652;53.132;18.026;2024-02-21T02:53:09;101452.13;;;7.59;77.21
76728;BME280;65652;53.132;18.026;2024-02-21T02:55:36;101449.30;;;7.59;77.29
76728;BME280;65652;53.132;18.026;2024-02-21T02:58:03;101455.79;;;7.59;77.42
76728;BME280;65652;53.132;18.026;2024-02-21T03:00:29;101449.02;;;7.58;77.53
76728;BME280;65652;53.132;18.026;2024-02-21T03:02:57;101445.70;;;7.57;77.53
76728;BME280;65652;53.132;18.026;2024-02-21T03:05:23;101443.85;;;7.59;77.22
76728;BME280;65652;53.132;18.026;2024-02-21T03:07:50;101443.26;;;7.60;77.33
76728;BME280;65652;53.132;18.026;2024-02-21T03:10:17;101442.08;;;7.59;77.53
76728;BME280;65652;53.132;18.026;2024-02-21T03:12:44;101439.77;;;7.59;77.53
76728;BME280;65652;53.132;18.026;2024-02-21T03:15:11;101436.41;;;7.57;77.90
76728;BME280;65652;53.132;18.026;2024-02-21T03:17:38;101436.50;;;7.56;77.47
76728;BME280;65652;53.132;18.026;2024-02-21T03:20:06;101435.64;;;7.56;77.50
76728;BME280;65652;53.132;18.026;2024-02-21T03:22:36;101435.71;;;7.54;77.93
76728;BME280;65652;53.132;18.026;2024-02-21T03:25:04;101436.48;;;7.53;77.60
76728;BME280;65652;53.132;18.026;2024-02-21T03:27:32;101433.45;;;7.51;77.93
76728;BME280;65652;53.132;18.026;2024-02-21T03:29:59;101427.61;;;7.49;77.92
76728;BME280;65652;53.132;18.026;2024-02-21T03:32:25;101430.73;;;7.50;78.05
76728;BME280;65652;53.132;18.026;2024-02-21T03:34:52;101428.40;;;7.50;78.08
76728;BME280;65652;53.132;18.026;2024-02-21T03:37:19;101428.77;;;7.50;77.99
76728;BME280;65652;53.132;18.026;2024-02-21T03:39:46;101423.51;;;7.50;78.19
76728;BME280;65652;53.132;18.026;2024-02-21T03:42:13;101418.84;;;7.52;78.06
76728;BME280;65652;53.132;18.026;2024-02-21T03:44:40;101420.32;;;7.53;78.06
76728;BME280;65652;53.132;18.026;2024-02-21T03:47:07;101412.00;;;7.54;78.05
76728;BME280;65652;53.132;18.026;2024-02-21T03:49:37;101409.65;;;7.55;78.07
76728;BME280;65652;53.132;18.026;2024-02-21T03:52:04;101409.79;;;7.56;78.21
76728;BME280;65652;53.132;18.026;2024-02-21T03:54:31;101407.20;;;7.58;78.14
76728;BME280;65652;53.132;18.026;2024-02-21T03:56:58;101404.23;;;7.60;78.09
76728;BME280;65652;53.132;18.026;2024-02-21T03:59:24;101406.20;;;7.62;77.98
76728;BME280;65652;53.132;18.026;2024-02-21T04:01:52;101406.08;;;7.64;78.01
76728;BME280;65652;53.132;18.026;2024-02-21T04:04:20;101406.25;;;7.64;78.21
76728;BME280;65652;53.132;18.026;2024-02-21T04:06:50;101404.64;;;7.65;78.06
76728;BME280;65652;53.132;18.026;2024-02-21T04:09:18;101397.94;;;7.65;78.34
76728;BME280;65652;53.132;18.026;2024-02-21T04:11:45;101401.79;;;7.65;78.30
76728;BME280;65652;53.132;18.026;2024-02-21T04:14:11;101397.52;;;7.66;78.25
76728;BME280;65652;53.132;18.026;2024-02-21T04:16:38;101392.59;;;7.66;78.14
76728;BME280;65652;53.132;18.026;2024-02-21T04:19:05;101393.20;;;7.67;78.18
76728;BME280;65652;53.132;18.026;2024-02-21T04:21:32;101390.14;;;7.69;78.07
76728;BME280;65652;53.132;18.026;2024-02-21T04:23:59;101388.89;;;7.69;78.02
76728;BME280;65652;53.132;18.026;2024-02-21T04:26:26;101388.77;;;7.68;78.25
76728;BME280;65652;53.132;18.026;2024-02-21T04:28:53;101382.47;;;7.68;78.13
76728;BME280;65652;53.132;18.026;2024-02-21T04:31:20;101379.44;;;7.69;78.08
76728;BME280;65652;53.132;18.026;2024-02-21T04:33:47;101377.00;;;7.68;78.20
76728;BME280;65652;53.132;18.026;2024-02-21T04:36:13;101373.72;;;7.67;78.32
76728;BME280;65652;53.132;18.026;2024-02-21T04:38:40;101369.69;;;7.67;78.26
76728;BME280;65652;53.132;18.026;2024-02-21T04:41:07;101368.91;;;7.68;78.44
76728;BME280;65652;53.132;18.026;2024-02-21T04:43:34;101369.40;;;7.66;78.50
76728;BME280;65652;53.132;18.026;2024-02-21T04:46:01;101364.95;;;7.64;78.32
76728;BME280;65652;53.132;18.026;2024-02-21T04:48:28;101366.08;;;7.63;78.26
76728;BME280;65652;53.132;18.026;2024-02-21T04:50:55;101355.64;;;7.61;78.26
76728;BME280;65652;53.132;18.026;2024-02-21T04:53:22;101362.17;;;7.61;78.32
76728;BME280;65652;53.132;18.026;2024-02-21T04:55:49;101358.16;;;7.60;78.23
76728;BME280;65652;53.132;18.026;2024-02-21T04:58:16;101354.02;;;7.59;78.47
76728;BME280;65652;53.132;18.026;2024-02-21T05:00:42;101348.15;;;7.57;78.22
76728;BME280;65652;53.132;18.026;2024-02-21T05:03:09;101348.58;;;7.56;78.47
76728;BME280;65652;53.132;18.026;2024-02-21T05:05:37;101345.19;;;7.57;78.48
76728;BME280;65652;53.132;18.026;2024-02-21T05:08:03;101344.11;;;7.58;78.61
76728;BME280;65652;53.132;18.026;2024-02-21T05:10:30;101342.38;;;7.57;78.59
76728;BME280;65652;53.132;18.026;2024-02-21T05:12:57;101336.98;;;7.56;78.54
76728;BME280;65652;53.132;18.026;2024-02-21T05:15:25;101334.19;;;7.56;78.62
76728;BME280;65652;53.132;18.026;2024-02-21T05:17:52;101333.36;;;7.55;78.78
76728;BME280;65652;53.132;18.026;2024-02-21T05:20:19;101330.40;;;7.55;78.75
76728;BME280;65652;53.132;18.026;2024-02-21T05:22:46;101324.79;;;7.55;78.75
76728;BME280;65652;53.132;18.026;2024-02-21T05:25:12;101318.63;;;7.55;78.54
76728;BME280;65652;53.132;18.026;2024-02-21T05:27:39;101320.52;;;7.56;78.86
76728;BME280;65652;53.132;18.026;2024-02-21T05:30:06;101314.48;;;7.57;78.66
76728;BME280;65652;53.132;18.026;2024-02-21T05:32:33;101308.81;;;7.57;78.69
76728;BME280;65652;53.132;18.026;2024-02-21T05:35:00;101303.34;;;7.57;78.59
76728;BME280;65652;53.132;18.026;2024-02-21T05:37:27;101305.38;;;7.59;78.78
76728;BME280;65652;53.132;18.026;2024-02-21T05:39:54;101304.11;;;7.59;78.72
76728;BME280;65652;53.132;18.026;2024-02-21T05:42:21;101307.77;;;7.59;79.00
76728;BME280;65652;53.132;18.026;2024-02-21T05:44:48;101305.25;;;7.61;79.13
76728;BME280;65652;53.132;18.026;2024-02-21T05:47:14;101303.88;;;7.66;79.17
76728;BME280;65652;53.132;18.026;2024-02-21T05:49:41;101304.13;;;7.67;78.71
76728;BME280;65652;53.132;18.026;2024-02-21T05:52:08;101297.34;;;7.66;78.74
76728;BME280;65652;53.132;18.026;2024-02-21T05:54:37;101295.60;;;7.66;79.06
76728;BME280;65652;53.132;18.026;2024-02-21T05:57:06;101293.69;;;7.66;78.90
76728;BME280;65652;53.132;18.026;2024-02-21T05:59:33;101289.65;;;7.65;78.88
76728;BME280;65652;53.132;18.026;2024-02-21T06:02:02;101282.25;;;7.65;79.01
76728;BME280;65652;53.132;18.026;2024-02-21T06:04:30;101286.92;;;7.66;78.94
76728;BME280;65652;53.132;18.026;2024-02-21T06:06:57;101282.34;;;7.66;78.89
76728;BME280;65652;53.132;18.026;2024-02-21T06:09:24;101286.34;;;7.67;78.76
76728;BME280;65652;53.132;18.026;2024-02-21T06:11:51;101278.14;;;7.69;78.93
76728;BME280;65652;53.132;18.026;2024-02-21T06:14:19;101281.70;;;7.71;79.16
76728;BME280;65652;53.132;18.026;2024-02-21T06:16:46;101281.81;;;7.72;78.98
76728;BME280;65652;53.132;18.026;2024-02-21T06:19:13;101277.56;;;7.72;78.98
76728;BME280;65652;53.132;18.026;2024-02-21T06:21:39;101275.30;;;7.73;78.90
76728;BME280;65652;53.132;18.026;2024-02-21T06:24:06;101278.43;;;7.73;79.08
76728;BME280;65652;53.132;18.026;2024-02-21T06:26:33;101265.52;;;7.74;78.80
76728;BME280;65652;53.132;18.026;2024-02-21T06:29:00;101270.21;;;7.75;78.80
76728;BME280;65652;53.132;18.026;2024-02-21T06:31:28;101267.91;;;7.75;78.90
76728;BME280;65652;53.132;18.026;2024-02-21T06:33:55;101263.98;;;7.76;78.83
76728;BME280;65652;53.132;18.026;2024-02-21T06:36:22;101270.05;;;7.77;78.82
76728;BME280;65652;53.132;18.026;2024-02-21T06:38:49;101266.16;;;7.77;78.59
76728;BME280;65652;53.132;18.026;2024-02-21T06:41:17;101264.82;;;7.79;78.76
76728;BME280;65652;53.132;18.026;2024-02-21T06:43:46;101259.30;;;7.80;78.60
76728;BME280;65652;53.132;18.026;2024-02-21T06:46:23;101262.27;;;7.80;78.65
76728;BME280;65652;53.132;18.026;2024-02-21T06:48:50;101258.92;;;7.80;78.98
76728;BME280;65652;53.132;18.026;2024-02-21T06:51:18;101256.28;;;7.80;78.60
76728;BME280;65652;53.132;18.026;2024-02-21T06:53:45;101254.50;;;7.81;78.56
76728;BME280;65652;53.132;18.026;2024-02-21T06:56:12;101256.33;;;7.82;78.53
76728;BME280;65652;53.132;18.026;2024-02-21T06:58:39;101259.30;;;7.83;78.59
76728;BME280;65652;53.132;18.026;2024-02-21T07:01:06;101256.16;;;7.82;78.59
76728;BME280;65652;53.132;18.026;2024-02-21T07:03:33;101250.71;;;7.82;78.65
76728;BME280;65652;53.132;18.026;2024-02-21T07:06:00;101247.52;;;7.83;78.67
76728;BME280;65652;53.132;18.026;2024-02-21T07:08:27;101244.20;;;7.85;78.51
76728;BME280;65652;53.132;18.026;2024-02-21T07:10:54;101244.40;;;7.87;78.58
76728;BME280;65652;53.132;18.026;2024-02-21T07:13:21;101238.69;;;7.88;78.48
76728;BME280;65652;53.132;18.026;2024-02-21T07:15:49;101235.04;;;7.90;78.52
76728;BME280;65652;53.132;18.026;2024-02-21T07:18:16;101229.41;;;7.90;78.52
76728;BME280;65652;53.132;18.026;2024-02-21T07:20:42;101222.45;;;7.91;78.48
76728;BME280;65652;53.132;18.026;2024-02-21T07:23:09;101220.55;;;7.94;78.42
76728;BME280;65652;53.132;18.026;2024-02-21T07:25:36;101220.04;;;7.96;78.54
76728;BME280;65652;53.132;18.026;2024-02-21T07:28:03;101220.38;;;7.99;78.22
76728;BME280;65652;53.132;18.026;2024-02-21T07:30:30;101214.61;;;8.01;78.39
76728;BME280;65652;53.132;18.026;2024-02-21T07:32:57;101219.93;;;8.03;78.39
76728;BME280;65652;53.132;18.026;2024-02-21T07:35:24;101215.70;;;8.06;78.18
76728;BME280;65652;53.132;18.026;2024-02-21T07:37:50;101212.48;;;8.09;78.23
76728;BME280;65652;53.132;18.026;2024-02-21T07:40:17;101212.95;;;8.10;78.11
76728;BME280;65652;53.132;18.026;2024-02-21T07:42:45;101208.32;;;8.10;78.05
76728;BME280;65652;53.132;18.026;2024-02-21T07:45:11;101208.54;;;8.13;78.16
76728;BME280;65652;53.132;18.026;2024-02-21T07:47:38;101206.89;;;8.16;77.95
76728;BME280;65652;53.132;18.026;2024-02-21T07:50:06;101208.27;;;8.16;77.97
76728;BME280;65652;53.132;18.026;2024-02-21T07:52:34;101206.05;;;8.18;78.02
76728;BME280;65652;53.132;18.026;2024-02-21T07:55:01;101204.98;;;8.18;78.00
76728;BME280;65652;53.132;18.026;2024-02-21T07:57:28;101208.29;;;8.18;77.95
76728;BME280;65652;53.132;18.026;2024-02-21T07:59:54;101205.74;;;8.20;78.27
76728;BME280;65652;53.132;18.026;2024-02-21T08:02:21;101205.02;;;8.20;78.18
76728;BME280;65652;53.132;18.026;2024-02-21T08:04:48;101199.56;;;8.20;78.08
76728;BME280;65652;53.132;18.026;2024-02-21T08:07:15;101188.60;;;8.21;78.14
76728;BME280;65652;53.132;18.026;2024-02-21T08:09:42;101184.69;;;8.22;78.06
76728;BME280;65652;53.132;18.026;2024-02-21T08:12:08;101184.89;;;8.21;78.34
76728;BME280;65652;53.132;18.026;2024-02-21T08:14:35;101192.37;;;8.20;78.29
76728;BME280;65652;53.132;18.026;2024-02-21T08:17:02;101180.77;;;8.20;78.36
76728;BME280;65652;53.132;18.026;2024-02-21T08:19:30;101179.74;;;8.19;78.43
76728;BME280;65652;53.132;18.026;2024-02-21T08:21:57;101179.55;;;8.19;78.67
76728;BME280;65652;53.132;18.026;2024-02-21T08:24:24;101177.13;;;8.19;78.76
76728;BME280;65652;53.132;18.026;2024-02-21T08:26:51;101171.65;;;8.20;78.45
76728;BME280;65652;53.132;18.026;2024-02-21T08:29:18;101165.79;;;8.20;78.69
76728;BME280;65652;53.132;18.026;2024-02-21T08:31:44;101162.10;;;8.23;78.48
76728;BME280;65652;53.132;18.026;2024-02-21T08:34:11;101157.52;;;8.25;78.76
76728;BME280;65652;53.132;18.026;2024-02-21T08:36:39;101162.16;;;8.27;78.67
76728;BME280;65652;53.132;18.026;2024-02-21T08:39:06;101165.14;;;8.27;78.53
76728;BME280;65652;53.132;18.026;2024-02-21T08:41:35;101171.21;;;8.28;78.63
76728;BME280;65652;53.132;18.026;2024-02-21T08:44:02;101177.89;;;8.28;78.32
76728;BME280;65652;53.132;18.026;2024-02-21T08:46:29;101175.34;;;8.27;78.76
76728;BME280;65652;53.132;18.026;2024-02-21T08:48:56;101173.14;;;8.26;78.44
76728;BME280;65652;53.132;18.026;2024-02-21T08:51:23;101164.68;;;8.23;78.60
76728;BME280;65652;53.132;18.026;2024-02-21T08:53:50;101164.48;;;8.24;78.53
76728;BME280;65652;53.132;18.026;2024-02-21T08:56:18;101163.02;;;8.25;78.53
76728;BME280;65652;53.132;18.026;2024-02-21T08:58:45;101162.62;;;8.25;78.43
76728;BME280;65652;53.132;18.026;2024-02-21T09:01:12;101158.89;;;8.26;78.43
76728;BME280;65652;53.132;18.026;2024-02-21T09:03:39;101155.53;;;8.26;78.42
76728;BME280;65652;53.132;18.026;2024-02-21T09:06:07;101153.06;;;8.29;78.46
76728;BME280;65652;53.132;18.026;2024-02-21T09:08:34;101149.95;;;8.30;78.52
76728;BME280;65652;53.132;18.026;2024-02-21T09:11:01;101148.20;;;8.33;78.48
76728;BME280;65652;53.132;18.026;2024-02-21T09:13:28;101148.21;;;8.35;78.49
76728;BME280;65652;53.132;18.026;2024-02-21T09:15:55;101141.60;;;8.37;78.25
76728;BME280;65652;53.132;18.026;2024-02-21T09:18:22;101137.59;;;8.38;78.35
76728;BME280;65652;53.132;18.026;2024-02-21T09:20:49;101130.77;;;8.40;78.39
76728;BME280;65652;53.132;18.026;2024-02-21T09:23:16;101129.86;;;8.40;78.42
76728;BME280;65652;53.132;18.026;2024-02-21T09:25:43;101139.23;;;8.42;78.19
76728;BME280;65652;53.132;18.026;2024-02-21T09:28:10;101138.25;;;8.41;78.33
76728;BME280;65652;53.132;18.026;2024-02-21T09:30:37;101145.04;;;8.42;78.16
76728;BME280;65652;53.132;18.026;2024-02-21T09:33:04;101147.44;;;8.43;78.17
76728;BME280;65652;53.132;18.026;2024-02-21T09:35:31;101143.64;;;8.45;78.28
76728;BME280;65652;53.132;18.026;2024-02-21T09:38:01;101136.71;;;8.48;78.29
76728;BME280;65652;53.132;18.026;2024-02-21T09:40:28;101135.72;;;8.52;78.14
76728;BME280;65652;53.132;18.026;2024-02-21T09:43:04;101126.81;;;8.53;78.16
76728;BME280;65652;53.132;18.026;2024-02-21T09:45:34;101127.11;;;8.54;78.28
76728;BME280;65652;53.132;18.026;2024-02-21T09:48:19;101124.42;;;8.55;78.01
76728;BME280;65652;53.132;18.026;2024-02-21T09:50:53;101131.12;;;8.55;78.48
76728;BME280;65652;53.132;18.026;2024-02-21T09:53:24;101129.25;;;8.54;78.37
76728;BME280;65652;53.132;18.026;2024-02-21T09:55:51;101120.80;;;8.54;78.25
76728;BME280;65652;53.132;18.026;2024-02-21T09:58:19;101117.23;;;8.55;78.67
76728;BME280;65652;53.132;18.026;2024-02-21T10:00:46;101118.42;;;8.55;78.71
76728;BME280;65652;53.132;18.026;2024-02-21T10:03:13;101123.08;;;8.54;78.54
76728;BME280;65652;53.132;18.026;2024-02-21T10:05:49;101129.03;;;8.54;78.77
76728;BME280;65652;53.132;18.026;2024-02-21T10:08:19;101128.46;;;8.53;78.70
76728;BME280;65652;53.132;18.026;2024-02-21T10:10:46;101127.66;;;8.54;78.79
76728;BME280;65652;53.132;18.026;2024-02-21T10:13:27;101130.69;;;8.56;78.84
76728;BME280;65652;53.132;18.026;2024-02-21T10:16:04;101130.13;;;8.56;78.89
76728;BME280;65652;53.132;18.026;2024-02-21T10:18:32;101131.75;;;8.58;78.90
76728;BME280;65652;53.132;18.026;2024-02-21T10:21:06;101129.83;;;8.58;78.84
76728;BME280;65652;53.132;18.026;2024-02-21T10:23:48;101121.23;;;8.58;79.00
76728;BME280;65652;53.132;18.026;2024-02-21T10:26:16;101120.47;;;8.58;78.73
76728;BME280;65652;53.132;18.026;2024-02-21T10:28:43;101122.48;;;8.60;79.02
76728;BME280;65652;53.132;18.026;2024-02-21T10:31:25;101113.17;;;8.59;79.06
76728;BME280;65652;53.132;18.026;2024-02-21T10:33:56;101107.92;;;8.61;78.82
76728;BME280;65652;53.132;18.026;2024-02-21T10:36:24;101112.52;;;8.64;78.87
76728;BME280;65652;53.132;18.026;2024-02-21T10:38:52;101103.84;;;8.64;78.71
76728;BME280;65652;53.132;18.026;2024-02-21T10:41:21;101106.85;;;8.66;78.73
76728;BME280;65652;53.132;18.026;2024-02-21T10:43:52;101097.55;;;8.68;78.92
76728;BME280;65652;53.132;18.026;2024-02-21T10:46:23;101096.77;;;8.69;78.97
76728;BME280;65652;53.132;18.026;2024-02-21T10:51:33;101087.21;;;8.73;79.22
76728;BME280;65652;53.132;18.026;2024-02-21T10:54:24;101088.37;;;8.73;78.82
76728;BME280;65652;53.132;18.026;2024-02-21T10:56:56;101083.50;;;8.75;79.16
76728;BME280;65652;53.132;18.026;2024-02-21T10:59:25;101075.95;;;8.79;78.87
76728;BME280;65652;53.132;18.026;2024-02-21T11:01:52;101070.17;;;8.81;78.91
76728;BME280;65652;53.132;18.026;2024-02-21T11:04:19;101064.90;;;8.83;79.09
76728;BME280;65652;53.132;18.026;2024-02-21T11:06:46;101059.45;;;8.86;78.80
76728;BME280;65652;53.132;18.026;2024-02-21T11:09:13;101055.36;;;8.86;78.98
76728;BME280;65652;53.132;18.026;2024-02-21T11:11:43;101051.80;;;8.87;78.80
76728;BME280;65652;53.132;18.026;2024-02-21T11:14:17;101048.77;;;8.87;78.72
76728;BME280;65652;53.132;18.026;2024-02-21T11:16:44;101043.95;;;8.88;78.83
76728;BME280;65652;53.132;18.026;2024-02-21T11:19:22;101034.47;;;8.90;78.85
76728;BME280;65652;53.132;18.026;2024-02-21T11:21:50;101029.92;;;8.92;79.10
76728;BME280;65652;53.132;18.026;2024-02-21T11:24:27;101025.50;;;8.95;78.87
76728;BME280;65652;53.132;18.026;2024-02-21T11:27:14;101021.51;;;8.98;78.76
76728;BME280;65652;53.132;18.026;2024-02-21T11:29:49;101014.38;;;9.02;78.90
76728;BME280;65652;53.132;18.026;2024-02-21T11:32:21;101010.06;;;9.05;78.73
76728;BME280;65652;53.132;18.026;2024-02-21T11:35:02;101004.52;;;9.08;78.54
76728;BME280;65652;53.132;18.026;2024-02-21T11:37:33;101002.57;;;9.13;78.80
76728;BME280;65652;53.132;18.026;2024-02-21T11:40:00;101001.09;;;9.16;78.69
76728;BME280;65652;53.132;18.026;2024-02-21T11:42:28;100997.77;;;9.19;78.37
76728;BME280;65652;53.132;18.026;2024-02-21T11:44:56;100996.95;;;9.20;78.30
76728;BME280;65652;53.132;18.026;2024-02-21T11:47:24;100986.58;;;9.19;77.98
76728;BME280;65652;53.132;18.026;2024-02-21T11:49:51;100997.09;;;9.20;78.24
76728;BME280;65652;53.132;18.026;2024-02-21T11:52:22;100993.82;;;9.21;78.03
76728;BME280;65652;53.132;18.026;2024-02-21T11:54:52;100992.14;;;9.23;78.01
76728;BME280;65652;53.132;18.026;2024-02-21T11:57:19;100990.98;;;9.24;78.25
76728;BME280;65652;53.132;18.026;2024-02-21T11:59:46;100995.05;;;9.26;77.94
76728;BME280;65652;53.132;18.026;2024-02-21T12:02:14;100992.48;;;9.30;77.86
76728;BME280;65652;53.132;18.026;2024-02-21T12:04:42;100996.48;;;9.31;77.91
76728;BME280;65652;53.132;18.026;2024-02-21T12:07:10;100989.87;;;9.32;77.47
76728;BME280;65652;53.132;18.026;2024-02-21T12:09:37;100988.48;;;9.33;77.89
76728;BME280;65652;53.132;18.026;2024-02-21T12:12:05;100986.45;;;9.35;77.83
76728;BME280;65652;53.132;18.026;2024-02-21T12:14:34;100977.62;;;9.32;77.79
76728;BME280;65652;53.132;18.026;2024-02-21T12:17:02;100974.96;;;9.33;77.65
76728;BME280;65652;53.132;18.026;2024-02-21T12:19:34;100972.75;;;9.34;77.50
76728;BME280;65652;53.132;18.026;2024-02-21T12:22:01;100966.66;;;9.37;77.86
76728;BME280;65652;53.132;18.026;2024-02-21T12:24:28;100963.52;;;9.39;77.51
76728;BME280;65652;53.132;18.026;2024-02-21T12:26:56;100968.58;;;9.42;77.60
76728;BME280;65652;53.132;18.026;2024-02-21T12:29:25;100969.07;;;9.43;77.60
76728;BME280;65652;53.132;18.026;2024-02-21T12:31:52;100965.98;;;9.44;77.27
76728;BME280;65652;53.132;18.026;2024-02-21T12:34:21;100976.83;;;9.45;77.52
76728;BME280;65652;53.132;18.026;2024-02-21T12:36:49;100977.67;;;9.46;77.71
76728;BME280;65652;53.132;18.026;2024-02-21T12:39:16;100975.98;;;9.47;77.44
76728;BME280;65652;53.132;18.026;2024-02-21T12:41:42;100968.12;;;9.48;77.61
76728;BME280;65652;53.132;18.026;2024-02-21T12:44:11;100967.95;;;9.46;77.37
76728;BME280;65652;53.132;18.026;2024-02-21T12:46:39;100965.17;;;9.47;77.53
76728;BME280;65652;53.132;18.026;2024-02-21T12:49:06;100970.30;;;9.48;77.75
76728;BME280;65652;53.132;18.026;2024-02-21T12:51:35;100967.21;;;9.48;77.35
76728;BME280;65652;53.132;18.026;2024-02-21T12:54:02;100968.58;;;9.49;77.44
76728;BME280;65652;53.132;18.026;2024-02-21T12:56:31;100970.55;;;9.49;77.39